Aérodrome :
LOGIN :

S'inscrire | Disclaimer

   EN    FR    IT 

 










Légende :    VFR   VFR Marginal   IFR   IFR Intensif   IFR Très Intensif
Visi : 
Plafond : 
>= 8 km
>= 3000ft
5 à 8 km
1000 à 3000 ft
1500m à 5 km
500 à 1000 ft
800 à 1500m
200 à 500 ft
< 800m
< 200 ft
Symboles :   Orages  Brouillard  Fortes neiges  Fortes précipitations  Vent > 20 kt
SIGMETs :   Divers  Orages  Givrage  Turbulence  Onde Orograph.  Cendres Volcan.







- Altitude de l'aérodrome : 1299 ft


EDTY - Adolf Würth

DERNIER METAR :
  • 100850Z 27012KT 240V300 9999 BKN011 OVC019 03/03 Q1020

METARs EXPIRÉS :
  • 100820Z 28013KT 9999 BKN013 BKN019 OVC075 03/03 Q1020
  • 100750Z 28014KT 240V300 9999 -SHRA BKN012 OVC016 03/03 Q1019
  • 100720Z 26011KT 230V290 9999 -SHRA BKN012 OVC015 04/04 Q1019
  • 100650Z 27008KT 9999 FEW012 BKN015 OVC032 04/03 Q1019
  • 100620Z 27012KT 240V320 9999 -SHRA SCT011 BKN020 OVC039 04/03 Q1019

TAF TAF EDTY
Valide du 10 à 09h jusqu'au 10 à 18h UTC


100800Z 1009/1018 28012KT 9999 BKN020
TEMPO 1009/1015 29015G25KT 3000 SHSNRA BKN012CB
TEMPO 1015/1018 1200 SHSN BKN008CB
Pas de NOTAMs connus pour ce terrain.



MET'MAP, la Météo Aéronautique d'un coup d'oeil ! - Copyright ORBIFLY Décembre 2007 - Disclaimer

ORBIFLY MET'MAP TEAM :

Programmation & Développement : Alexandra Zaïnal
Conception & Développement : Baudouin d'Aumeries
Co-Programmation & Développement : Marc-Olivier Méhu
Soutien technique & logistique : Manuel Goepfert

Contact : metmap@orbifly.com




SOURCES & CREDITS :

   NOAA